Time;durP1;ratioP1;P1;durP2;ratioP2;P2;SDS_P1;SDS_P2;PMS_P1;PMS_P2;Temp;Humidity;BMP_temperature;BMP_pressure;BME280_temperature;BME280_humidity;BME280_pressure;Samples;Min_cycle;Max_cycle;Signal;HPM_P1;HPM_P2
2021/04/22 00:00:15;;;;;;;14.57;2.60;;;;;;;3.55;71.95;100868.63;5075482;28;20031;-81
2021/04/22 00:02:41;;;;;;;20.52;3.03;;;;;;;3.62;71.40;100869.56;5074431;28;20074;-81
2021/04/22 00:05:14;;;;;;;18.55;3.22;;;;;;;3.59;71.67;100885.78;5074135;28;20050;-81
2021/04/22 00:07:39;;;;;;;19.98;4.03;;;;;;;3.68;71.58;100888.47;5091106;28;20115;-81
2021/04/22 00:10:09;;;;;;;22.65;4.88;;;;;;;3.81;71.00;100889.53;5075234;28;20118;-81
2021/04/22 00:12:34;;;;;;;18.02;3.60;;;;;;;3.93;70.52;100893.97;5090759;28;20090;-81
2021/04/22 00:14:59;;;;;;;14.15;3.33;;;;;;;3.99;70.73;100906.88;5090422;28;20481;-81
2021/04/22 00:17:25;;;;;;;17.38;3.33;;;;;;;3.99;72.44;100895.75;5090677;28;20050;-81
2021/04/22 00:19:50;;;;;;;16.75;3.47;;;;;;;3.73;76.58;100905.66;5090402;28;20391;-81
2021/04/22 00:22:15;;;;;;;16.52;3.72;;;;;;;3.59;77.54;100902.88;5091072;28;20035;-81
2021/04/22 00:24:40;;;;;;;20.08;2.90;;;;;;;3.52;77.84;100909.59;5090423;28;20036;-81
2021/04/22 00:27:06;;;;;;;16.85;2.70;;;;;;;3.56;77.49;100895.13;5090749;28;20020;-81
2021/04/22 00:29:31;;;;;;;20.33;3.53;;;;;;;3.60;77.87;100910.59;5073745;28;20123;-81
2021/04/22 00:31:56;;;;;;;18.15;3.28;;;;;;;3.56;78.25;100907.94;5090409;28;20012;-81
2021/04/22 00:34:22;;;;;;;19.92;3.65;;;;;;;3.60;79.04;100897.78;5090076;28;20023;-81
2021/04/22 00:36:47;;;;;;;19.38;3.30;;;;;;;3.60;79.28;100902.00;5073288;28;20518;-81
2021/04/22 00:39:12;;;;;;;22.85;3.55;;;;;;;3.67;77.05;100893.59;5090092;28;20035;-81
2021/04/22 00:41:37;;;;;;;26.05;4.00;;;;;;;3.69;77.67;100903.06;5074184;28;20022;-80
2021/04/22 00:44:05;;;;;;;29.77;4.03;;;;;;;3.73;77.30;100896.25;5089835;28;20028;-79
2021/04/22 00:46:30;;;;;;;19.80;3.78;;;;;;;3.79;76.77;100900.63;5089975;28;20111;-79
2021/04/22 00:48:56;;;;;;;20.48;3.78;;;;;;;3.84;76.44;100897.25;5072746;28;20105;-78
2021/04/22 00:51:21;;;;;;;21.27;4.10;;;;;;;3.84;77.10;100892.13;5072758;28;20021;-78
2021/04/22 00:53:48;;;;;;;21.45;3.45;;;;;;;3.91;75.95;100893.97;5073533;28;20021;-78
2021/04/22 00:56:13;;;;;;;17.35;3.03;;;;;;;3.95;75.69;100894.00;5074130;28;20056;-78
2021/04/22 00:58:39;;;;;;;18.35;3.60;;;;;;;3.96;75.84;100895.72;5073102;28;20047;-80
2021/04/22 01:01:04;;;;;;;21.00;3.60;;;;;;;3.97;74.10;100900.84;5074486;28;20043;-79
2021/04/22 01:03:30;;;;;;;23.13;4.00;;;;;;;3.97;73.82;100898.28;5074108;28;20139;-79
2021/04/22 01:05:58;;;;;;;16.90;3.38;;;;;;;3.98;73.86;100905.16;5075419;28;20032;-78
2021/04/22 01:08:24;;;;;;;21.13;3.85;;;;;;;4.07;73.00;100901.88;5091704;28;20024;-78
2021/04/22 01:10:50;;;;;;;19.15;3.30;;;;;;;4.08;72.44;100895.88;5073968;28;20054;-79
2021/04/22 01:13:15;;;;;;;21.00;3.20;;;;;;;4.07;72.13;100895.03;5090630;28;20022;-79
2021/04/22 01:15:41;;;;;;;14.82;3.25;;;;;;;4.07;71.96;100895.03;5076264;28;20025;-79
2021/04/22 01:18:07;;;;;;;15.02;2.80;;;;;;;4.11;71.97;100903.63;5075616;28;20032;-79
2021/04/22 01:20:43;;;;;;;19.08;3.38;;;;;;;4.10;71.51;100900.22;5075835;28;20069;-79
2021/04/22 01:26:30;;;;;;;21.73;3.53;;;;;;;4.13;71.74;100904.53;5076220;28;20086;-79
2021/04/22 01:28:55;;;;;;;14.57;2.50;;;;;;;3.96;72.41;100894.00;5091103;28;20028;-79
2021/04/22 01:31:22;;;;;;;13.77;3.10;;;;;;;3.78;72.83;100891.19;5091470;28;20536;-79
2021/04/22 01:33:48;;;;;;;14.25;3.05;;;;;;;3.73;72.40;100905.66;5077328;28;20032;-79
2021/04/22 01:36:13;;;;;;;15.25;2.88;;;;;;;3.62;73.18;100900.34;5092918;28;20028;-79
2021/04/22 01:38:39;;;;;;;14.43;2.78;;;;;;;3.66;72.99;100900.44;5094151;28;20027;-79
2021/04/22 01:41:05;;;;;;;17.27;3.17;;;;;;;3.67;73.19;100897.03;5077844;28;20021;-79
2021/04/22 01:43:31;;;;;;;18.85;2.92;;;;;;;3.66;73.88;100907.25;5090940;28;20036;-79
2021/04/22 01:45:58;;;;;;;13.30;2.67;;;;;;;3.62;74.29;100905.47;5074159;28;20031;-79
2021/04/22 01:48:24;;;;;;;20.38;3.42;;;;;;;3.53;75.40;100908.75;5094684;28;20514;-79
2021/04/22 01:50:50;;;;;;;22.13;4.07;;;;;;;3.63;75.12;100907.19;5095237;28;20024;-79
2021/04/22 01:53:15;;;;;;;20.65;3.45;;;;;;;3.63;74.12;100908.09;5081211;28;20031;-80
2021/04/22 01:55:43;;;;;;;19.48;3.15;;;;;;;3.68;74.07;100905.56;5098810;28;20036;-79
2021/04/22 01:58:11;;;;;;;17.35;2.80;;;;;;;3.69;74.56;100897.03;5091791;28;20021;-79
2021/04/22 02:00:49;;;;;;;13.57;3.25;;;;;;;3.68;74.67;100900.44;5076905;28;20070;-79
2021/04/22 02:03:14;;;;;;;17.67;3.50;;;;;;;3.68;73.83;100903.00;5074619;28;20031;-79
2021/04/22 02:05:40;;;;;;;16.17;3.58;;;;;;;3.71;73.82;100905.63;5096252;28;20024;-79
2021/04/22 02:08:07;;;;;;;19.33;3.88;;;;;;;3.71;73.61;100900.50;5079135;28;20058;-79
2021/04/22 02:10:33;;;;;;;23.38;3.47;;;;;;;3.69;72.93;100907.28;5079725;28;20035;-79
2021/04/22 02:12:58;;;;;;;18.88;3.17;;;;;;;3.66;72.99;100907.25;5095224;28;20111;-79
2021/04/22 02:15:27;;;;;;;19.25;3.25;;;;;;;3.74;72.45;100899.69;5079559;28;20047;-79
2021/04/22 02:17:53;;;;;;;22.45;3.67;;;;;;;3.69;72.55;100897.91;5079552;28;20031;-79
2021/04/22 02:20:19;;;;;;;19.15;2.92;;;;;;;3.73;72.51;100906.53;5079629;28;20437;-79
2021/04/22 02:22:45;;;;;;;12.27;2.45;;;;;;;3.81;72.36;100906.63;5095184;28;20089;-79
2021/04/22 02:25:13;;;;;;;13.50;3.17;;;;;;;3.84;71.99;100904.94;5094448;28;20115;-79
2021/04/22 02:27:38;;;;;;;19.45;3.08;;;;;;;3.85;72.01;100903.28;5079506;28;20024;-79
2021/04/22 02:30:23;;;;;;;19.85;3.92;;;;;;;3.82;72.19;100909.22;5077477;28;20029;-79
2021/04/22 02:32:50;;;;;;;17.75;3.30;;;;;;;3.81;72.33;100906.63;5079761;28;20050;-79
2021/04/22 02:35:17;;;;;;;16.77;3.03;;;;;;;3.84;71.96;100904.94;5095045;28;20048;-79
2021/04/22 02:37:43;;;;;;;20.83;3.80;;;;;;;3.86;72.03;100903.28;5095208;28;20025;-79
2021/04/22 02:40:12;;;;;;;25.95;2.95;;;;;;;3.91;71.86;100899.09;5094618;28;20031;-79
2021/04/22 02:42:40;;;;;;;17.90;3.10;;;;;;;3.91;72.26;100905.94;5095066;28;20021;-79
2021/04/22 02:45:12;;;;;;;22.42;3.40;;;;;;;3.98;72.05;100909.44;5094315;28;20021;-79
2021/04/22 02:47:37;;;;;;;25.55;3.70;;;;;;;4.00;72.26;100908.59;5093927;28;20056;-79
2021/04/22 02:50:08;;;;;;;17.30;3.10;;;;;;;3.98;72.83;100912.88;5079483;28;20024;-79
2021/04/22 02:52:34;;;;;;;18.33;3.03;;;;;;;4.04;72.29;100910.41;5096034;28;20067;-79
2021/04/22 02:54:59;;;;;;;20.70;3.13;;;;;;;4.04;72.71;100909.53;5080145;28;20051;-80
2021/04/22 02:57:25;;;;;;;14.48;2.90;;;;;;;4.04;72.33;100909.53;5095394;28;20028;-80
2021/04/22 02:59:50;;;;;;;19.70;3.40;;;;;;;4.04;72.64;100909.53;5078646;28;20016;-80
2021/04/22 03:02:15;;;;;;;16.27;2.90;;;;;;;4.07;72.87;100904.44;5094439;28;20481;-80
2021/04/22 03:04:41;;;;;;;22.13;3.28;;;;;;;4.05;72.43;100912.09;5078953;28;20051;-80
2021/04/22 03:07:06;;;;;;;20.95;2.88;;;;;;;4.08;71.86;100908.72;5094148;28;20031;-79
2021/04/22 03:09:31;;;;;;;19.33;3.30;;;;;;;4.12;71.17;100907.91;5093754;28;20081;-80
2021/04/22 03:11:56;;;;;;;14.98;3.63;;;;;;;4.09;72.19;100903.59;5078416;28;20025;-79
2021/04/22 03:14:22;;;;;;;16.88;3.10;;;;;;;4.12;71.25;100908.78;5078203;28;20025;-79
2021/04/22 03:16:47;;;;;;;19.55;3.33;;;;;;;4.11;71.08;100895.94;5077287;28;20056;-79
2021/04/22 03:19:12;;;;;;;19.25;2.78;;;;;;;4.12;70.88;100903.63;5078140;28;20021;-79
2021/04/22 03:21:38;;;;;;;17.27;3.53;;;;;;;4.14;71.11;100903.69;5093624;28;20020;-79
2021/04/22 03:24:03;;;;;;;19.17;3.85;;;;;;;4.12;70.55;100893.38;5093595;28;20024;-79
2021/04/22 03:26:28;;;;;;;20.13;2.95;;;;;;;4.14;71.16;100901.97;5093814;28;20028;-79
2021/04/22 03:28:54;;;;;;;17.40;2.65;;;;;;;4.15;70.71;100897.69;5077528;28;20036;-79
2021/04/22 03:31:19;;;;;;;15.88;3.20;;;;;;;4.15;70.73;100901.13;5078617;28;20073;-79
2021/04/22 03:33:44;;;;;;;13.10;2.65;;;;;;;4.15;70.72;100903.69;5093315;28;20468;-79
2021/04/22 03:36:10;;;;;;;21.17;3.22;;;;;;;4.13;71.35;100905.38;5077780;28;20103;-79
2021/04/22 03:38:35;;;;;;;18.98;3.42;;;;;;;4.17;70.71;100905.44;5077526;28;20025;-79
2021/04/22 03:41:00;;;;;;;22.00;3.42;;;;;;;4.18;70.57;100914.84;5093162;28;20028;-79
2021/04/22 03:43:26;;;;;;;23.35;3.20;;;;;;;4.21;70.81;100914.88;5092990;28;20137;-79
2021/04/22 03:45:51;;;;;;;19.83;2.80;;;;;;;4.21;70.59;100907.19;5076408;28;20037;-79
2021/04/22 03:48:16;;;;;;;18.67;3.03;;;;;;;4.22;70.59;100909.78;5092961;28;20024;-79
2021/04/22 03:50:42;;;;;;;21.48;3.13;;;;;;;4.23;71.33;100916.63;5092943;28;20031;-79
2021/04/22 03:53:07;;;;;;;18.65;3.17;;;;;;;4.23;71.12;100911.50;5077243;28;20527;-79
2021/04/22 03:55:32;;;;;;;15.40;3.38;;;;;;;4.21;71.37;100909.75;5092748;28;20024;-79
2021/04/22 03:57:57;;;;;;;25.38;3.17;;;;;;;4.26;71.15;100900.41;5092723;28;20031;-79
2021/04/22 04:00:24;;;;;;;22.67;3.65;;;;;;;4.30;70.50;100915.00;5093131;28;20020;-79
2021/04/22 04:02:49;;;;;;;16.30;2.63;;;;;;;4.30;70.34;100905.59;5075600;28;20027;-79
2021/04/22 04:05:15;;;;;;;18.45;3.25;;;;;;;4.28;70.57;100915.00;5075279;28;20024;-79
2021/04/22 04:07:40;;;;;;;18.92;3.42;;;;;;;4.26;70.53;100916.69;5075452;28;20115;-79
2021/04/22 04:10:07;;;;;;;14.35;2.50;;;;;;;4.32;70.16;100916.75;5075780;28;20020;-79
2021/04/22 04:12:33;;;;;;;20.00;3.22;;;;;;;4.32;70.49;100911.63;5092710;28;20021;-79
2021/04/22 04:14:58;;;;;;;19.08;2.90;;;;;;;4.33;69.86;100918.47;5092654;28;20028;-79
2021/04/22 04:17:24;;;;;;;16.40;3.50;;;;;;;4.37;69.23;100929.63;5078425;28;20075;-79
2021/04/22 04:19:49;;;;;;;18.77;3.22;;;;;;;4.36;69.01;100915.94;5092140;28;20454;-79
2021/04/22 04:22:14;;;;;;;16.45;2.80;;;;;;;4.40;69.17;100921.97;5074292;28;20016;-79
2021/04/22 04:24:40;;;;;;;13.70;2.53;;;;;;;4.39;69.37;100913.41;5091278;28;20020;-79
2021/04/22 04:27:05;;;;;;;20.98;2.97;;;;;;;4.38;69.36;100911.69;5091145;28;20024;-79
2021/04/22 04:29:31;;;;;;;19.58;3.53;;;;;;;4.42;69.74;100912.59;5075512;28;20099;-79
2021/04/22 04:31:56;;;;;;;25.40;3.63;;;;;;;4.45;70.25;100927.19;5091232;28;20020;-79
2021/04/22 04:34:21;;;;;;;25.02;3.42;;;;;;;4.43;70.94;100932.28;5076289;28;20033;-80
2021/04/22 04:36:47;;;;;;;18.45;3.25;;;;;;;4.41;71.77;100936.56;5091223;28;20064;-79
2021/04/22 04:39:14;;;;;;;15.88;3.13;;;;;;;4.34;72.57;100920.22;5091201;28;20025;-79
2021/04/22 04:41:40;;;;;;;17.10;3.15;;;;;;;4.37;72.57;100930.53;5092866;28;20021;-79
2021/04/22 04:44:06;;;;;;;18.55;2.63;;;;;;;4.37;72.91;100927.06;5091883;28;20477;-79
2021/04/22 04:46:31;;;;;;;20.23;2.78;;;;;;;4.42;72.76;100934.84;5074961;28;20021;-79
2021/04/22 04:48:56;;;;;;;24.42;3.67;;;;;;;4.45;72.82;100934.91;5077110;28;20056;-79
2021/04/22 04:51:22;;;;;;;15.15;2.88;;;;;;;4.47;73.07;100938.34;5080122;28;20099;-79
2021/04/22 04:53:48;;;;;;;19.67;2.70;;;;;;;4.45;73.26;100938.31;5082239;28;20021;-79
2021/04/22 04:56:17;;;;;;;14.50;3.10;;;;;;;4.51;73.04;100937.53;5079930;28;20058;-79
2021/04/22 04:58:42;;;;;;;15.93;2.70;;;;;;;4.57;72.47;100932.47;5077964;28;20078;-79
2021/04/22 05:01:07;;;;;;;17.55;3.03;;;;;;;4.57;72.40;100947.88;5093223;28;20477;-79
2021/04/22 05:03:33;;;;;;;17.95;2.65;;;;;;;4.62;72.34;100956.53;5093741;28;20035;-79
2021/04/22 05:05:58;;;;;;;14.95;2.90;;;;;;;4.63;72.50;100958.25;5091926;28;20082;-79
2021/04/22 05:08:23;;;;;;;16.17;2.90;;;;;;;4.64;72.77;100951.41;5080117;28;20370;-79
2021/04/22 05:10:48;;;;;;;14.25;2.95;;;;;;;4.70;73.91;100962.59;5075844;28;20021;-79
2021/04/22 05:13:14;;;;;;;11.02;2.38;;;;;;;4.44;75.42;100967.41;5090961;28;20035;-79
2021/04/22 05:15:39;;;;;;;17.42;3.10;;;;;;;4.50;75.90;100967.50;5075804;28;20393;-79
2021/04/22 05:18:04;;;;;;;19.25;2.90;;;;;;;4.52;75.35;100982.91;5090575;28;20039;-79
2021/04/22 05:20:30;;;;;;;15.95;2.97;;;;;;;4.55;75.51;100982.97;5090855;28;20162;-79
2021/04/22 05:22:55;;;;;;;20.13;3.30;;;;;;;4.65;75.44;100973.66;5075369;28;20025;-79
2021/04/22 05:25:20;;;;;;;22.88;4.32;;;;;;;4.73;76.52;100975.50;5075474;28;20035;-79
2021/04/22 05:27:45;;;;;;;17.58;3.28;;;;;;;4.74;76.65;100971.19;5090582;28;20492;-80
2021/04/22 05:30:11;;;;;;;21.15;3.47;;;;;;;4.77;76.55;100981.53;5075606;28;20025;-79
2021/04/22 05:32:37;;;;;;;21.88;3.42;;;;;;;4.54;78.17;100988.94;5074172;28;20020;-79
2021/04/22 05:35:02;;;;;;;20.23;3.10;;;;;;;4.78;76.77;100994.41;5073973;28;20028;-80
2021/04/22 05:37:27;;;;;;;13.25;2.88;;;;;;;5.12;75.55;100992.22;5074661;28;20023;-79
2021/04/22 05:39:53;;;;;;;15.60;3.10;;;;;;;5.01;76.00;100991.22;5075148;28;20024;-79
2021/04/22 05:42:18;;;;;;;17.15;2.83;;;;;;;4.95;77.55;100986.03;5095069;28;20070;-79
2021/04/22 05:44:44;;;;;;;15.48;3.47;;;;;;;4.75;76.99;100993.50;5074796;28;20028;-79
2021/04/22 05:47:10;;;;;;;18.02;2.88;;;;;;;4.78;76.97;100998.69;5090678;28;20401;-79
2021/04/22 05:49:35;;;;;;;18.33;3.20;;;;;;;5.02;76.35;101000.69;5075059;28;20025;-80
2021/04/22 05:52:00;;;;;;;19.42;3.58;;;;;;;5.02;74.93;100998.13;5074666;28;20033;-79
2021/04/22 05:54:26;;;;;;;16.35;3.13;;;;;;;5.03;74.92;101012.69;5075146;28;20496;-79
2021/04/22 05:56:51;;;;;;;15.68;2.38;;;;;;;4.99;74.97;101010.94;5090403;28;20048;-79
2021/04/22 05:59:16;;;;;;;23.20;3.58;;;;;;;5.07;74.75;101017.00;5090390;28;20020;-79
2021/04/22 06:01:42;;;;;;;16.60;3.05;;;;;;;5.42;73.94;101019.09;5090730;28;20073;-79
2021/04/22 06:04:07;;;;;;;21.08;2.90;;;;;;;5.40;74.60;101008.81;5091188;28;20024;-79
2021/04/22 06:06:33;;;;;;;19.17;2.83;;;;;;;5.13;74.49;101011.94;5073881;28;20480;-79
2021/04/22 06:08:58;;;;;;;15.55;2.58;;;;;;;5.11;75.40;101017.91;5073716;28;20392;-79
2021/04/22 06:11:23;;;;;;;21.33;2.65;;;;;;;5.05;74.58;101019.59;5090639;28;20025;-79
2021/04/22 06:13:49;;;;;;;19.35;3.13;;;;;;;5.22;74.19;101016.31;5074857;28;20380;-79
2021/04/22 06:16:14;;;;;;;18.42;3.10;;;;;;;5.30;73.53;101020.72;5091221;28;20035;-79
2021/04/22 06:18:40;;;;;;;16.70;2.85;;;;;;;5.52;73.38;101023.50;5075054;28;20029;-79
2021/04/22 06:21:05;;;;;;;19.13;3.90;;;;;;;5.48;73.20;101025.19;5090466;28;20108;-79
2021/04/22 06:23:30;;;;;;;20.55;2.60;;;;;;;5.27;73.89;101022.41;5073646;28;20027;-79
2021/04/22 06:25:56;;;;;;;18.25;3.25;;;;;;;5.19;73.59;101034.28;5073188;28;20024;-79
2021/04/22 06:28:22;;;;;;;20.55;4.07;;;;;;;5.28;73.73;101032.69;5090364;28;20020;-79
2021/04/22 06:30:47;;;;;;;17.00;3.50;;;;;;;5.41;73.02;101027.66;5090885;28;20024;-79
2021/04/22 06:33:12;;;;;;;14.80;2.90;;;;;;;5.59;72.38;101030.44;5073639;28;20052;-79
2021/04/22 06:35:38;;;;;;;20.20;4.05;;;;;;;5.61;71.79;101033.88;5074976;28;20047;-79
2021/04/22 06:38:04;;;;;;;16.55;2.58;;;;;;;5.81;71.41;101030.63;5076932;28;20024;-79
2021/04/22 06:40:29;;;;;;;22.60;3.10;;;;;;;5.73;71.60;101030.56;5091007;28;20032;-80
2021/04/22 06:42:55;;;;;;;20.42;3.50;;;;;;;5.56;72.46;101032.13;5093523;28;20048;-80
2021/04/22 06:45:21;;;;;;;16.85;2.63;;;;;;;5.51;70.64;101035.50;5095258;28;20059;-80
2021/04/22 06:47:47;;;;;;;14.68;2.60;;;;;;;5.66;70.59;101029.63;5087382;28;20033;-79
2021/04/22 06:50:15;;;;;;;18.90;3.10;;;;;;;5.70;69.41;101038.28;5111318;28;20028;-79
2021/04/22 06:52:40;;;;;;;21.83;3.78;;;;;;;5.88;69.93;101047.84;5100123;28;20056;-80
2021/04/22 06:55:10;;;;;;;15.57;3.13;;;;;;;5.75;69.91;101037.44;5079044;28;20504;-79
2021/04/22 06:57:35;;;;;;;16.55;2.80;;;;;;;5.67;69.64;101046.81;5079054;28;20029;-79
2021/04/22 07:00:00;;;;;;;12.48;2.88;;;;;;;5.76;66.27;101038.31;5094333;28;20059;-82
2021/04/22 07:02:26;;;;;;;15.88;2.80;;;;;;;5.69;67.65;101057.09;5101040;22;20025;-78
2021/04/22 07:04:51;;;;;;;14.18;2.97;;;;;;;5.80;67.38;101058.09;5076581;28;20051;-78
2021/04/22 07:07:16;;;;;;;20.38;3.72;;;;;;;5.86;66.97;101062.44;5058412;28;20451;-77
2021/04/22 07:09:41;;;;;;;15.65;2.30;;;;;;;5.81;67.03;101056.38;5058106;28;20032;-77
2021/04/22 07:12:07;;;;;;;17.98;2.85;;;;;;;6.16;65.69;101054.16;5076608;28;20020;-78
2021/04/22 07:14:32;;;;;;;17.80;3.22;;;;;;;6.22;65.00;101064.50;5076991;28;20024;-78
2021/04/22 07:17:00;;;;;;;12.90;2.30;;;;;;;5.96;65.34;101061.69;5077490;28;20020;-78
2021/04/22 07:19:27;;;;;;;15.48;2.65;;;;;;;6.09;65.80;101054.94;5080816;28;20404;-79
2021/04/22 07:21:53;;;;;;;11.75;2.15;;;;;;;5.97;65.17;101071.13;5085071;28;20094;-80
2021/04/22 07:24:19;;;;;;;13.02;2.70;;;;;;;7.15;60.26;101062.44;5084911;28;20024;-79
2021/04/22 07:26:44;;;;;;;21.00;2.53;;;;;;;6.99;60.02;101075.25;5087783;28;20096;-80
2021/04/22 07:29:10;;;;;;;16.67;2.20;;;;;;;7.52;58.54;101065.16;5086215;28;20055;-78
2021/04/22 07:31:35;;;;;;;14.23;2.53;;;;;;;7.47;58.09;101073.72;5080814;28;20480;-78
2021/04/22 07:34:00;;;;;;;16.55;3.08;;;;;;;7.41;58.24;101076.28;5079683;28;20138;-78
2021/04/22 07:36:25;;;;;;;19.42;2.60;;;;;;;7.36;57.46;101066.81;5079281;28;20028;-79
2021/04/22 07:38:51;;;;;;;11.90;2.75;;;;;;;7.76;56.38;101071.22;5079319;28;20078;-78
2021/04/22 07:41:16;;;;;;;17.30;3.15;;;;;;;7.76;57.77;101076.41;5061416;28;20016;-78
2021/04/22 07:43:42;;;;;;;11.75;2.63;;;;;;;7.42;56.88;101073.72;5062282;28;20020;-78
2021/04/22 07:46:08;;;;;;;15.25;2.60;;;;;;;7.20;57.84;101077.06;5080824;28;20389;-78
2021/04/22 07:48:34;;;;;;;23.17;3.30;;;;;;;7.48;55.91;101076.34;5062068;28;20020;-79
2021/04/22 07:51:00;;;;;;;14.48;2.47;;;;;;;7.75;55.79;101077.22;5064550;28;20027;-79
2021/04/22 07:53:25;;;;;;;20.65;2.95;;;;;;;8.21;54.88;101078.13;5079329;28;20025;-78
2021/04/22 07:55:51;;;;;;;17.67;3.03;;;;;;;8.18;55.00;101085.03;5080429;28;20020;-79
2021/04/22 07:58:17;;;;;;;13.93;2.60;;;;;;;7.59;55.99;101077.19;5079288;28;20040;-79
2021/04/22 08:00:45;;;;;;;23.92;2.88;;;;;;;7.81;56.92;101097.91;5078849;28;20067;-78
2021/04/22 08:03:16;;;;;;;18.13;2.75;;;;;;;7.62;57.32;101091.84;5076370;28;20043;-79
2021/04/22 08:05:42;;;;;;;14.15;3.03;;;;;;;8.38;55.97;101092.78;5075131;28;20033;-79
2021/04/22 08:08:10;;;;;;;14.75;2.45;;;;;;;8.47;56.16;101100.56;5076005;28;20032;-79
2021/04/22 08:10:43;;;;;;;14.38;3.17;;;;;;;9.68;53.52;101100.16;5077016;28;20021;-78
2021/04/22 08:13:10;;;;;;;18.33;2.85;;;;;;;9.80;52.67;101097.47;5077218;28;20054;-79
2021/04/22 08:15:37;;;;;;;20.67;3.65;;;;;;;8.78;54.66;101091.03;5058736;28;20028;-78
2021/04/22 08:18:03;;;;;;;11.88;2.28;;;;;;;8.82;55.00;101100.50;5062228;28;20033;-80
2021/04/22 08:20:30;;;;;;;18.70;3.33;;;;;;;7.88;56.27;101099.63;5062068;28;20088;-80
2021/04/22 08:22:58;;;;;;;21.77;4.05;;;;;;;7.47;58.25;101108.13;5062061;28;20396;-80
2021/04/22 08:25:30;;;;;;;15.98;2.90;;;;;;;7.71;56.85;101111.66;5079272;28;20028;-80
2021/04/22 08:27:56;;;;;;;13.82;2.80;;;;;;;8.24;54.84;101108.28;5079362;28;20032;-80
2021/04/22 08:30:26;;;;;;;18.80;3.17;;;;;;;7.91;55.19;101103.94;5081247;28;20085;-80
2021/04/22 08:32:51;;;;;;;16.80;3.15;;;;;;;7.80;56.11;101112.53;5062030;28;20016;-80
2021/04/22 08:35:17;;;;;;;22.35;3.65;;;;;;;8.34;54.51;101110.00;5080502;28;20124;-79
2021/04/22 08:37:42;;;;;;;20.98;2.92;;;;;;;8.57;53.70;101117.78;5079664;28;20134;-79
2021/04/22 08:40:10;;;;;;;22.65;3.28;;;;;;;7.42;55.56;101122.75;5062578;28;20388;-80
2021/04/22 08:42:36;;;;;;;16.35;3.72;;;;;;;8.45;53.49;101123.81;5083507;28;20028;-80
2021/04/22 08:45:04;;;;;;;15.73;2.80;;;;;;;8.91;51.86;101112.56;5081279;28;20488;-80
2021/04/22 08:47:31;;;;;;;16.65;3.05;;;;;;;7.75;54.04;101118.53;5064967;28;20017;-80
2021/04/22 08:49:56;;;;;;;20.08;3.38;;;;;;;8.60;52.33;101122.09;5083372;28;20027;-80
2021/04/22 08:52:23;;;;;;;15.50;3.30;;;;;;;7.83;54.28;101114.25;5083072;28;20016;-80
2021/04/22 08:54:50;;;;;;;16.58;3.10;;;;;;;7.60;55.19;101125.41;5083515;28;20032;-80
2021/04/22 08:57:15;;;;;;;11.50;2.78;;;;;;;7.46;54.44;101136.53;5083490;28;20431;-80
2021/04/22 08:59:40;;;;;;;15.82;3.22;;;;;;;8.42;52.43;101141.91;5082930;28;20039;-80
2021/04/22 09:02:07;;;;;;;15.40;3.13;;;;;;;8.16;52.70;101125.50;5080696;28;20021;-79
2021/04/22 09:04:33;;;;;;;12.63;2.92;;;;;;;8.75;51.70;101122.94;5080721;28;20032;-79
2021/04/22 09:06:59;;;;;;;15.32;4.00;;;;;;;9.04;51.57;101136.66;5082368;28;20024;-80
2021/04/22 09:09:24;;;;;;;18.20;3.50;;;;;;;9.90;50.11;101137.16;5060739;28;20050;-79
2021/04/22 09:11:49;;;;;;;19.58;3.67;;;;;;;10.02;49.47;101134.47;5078904;28;20028;-79
2021/04/22 09:14:18;;;;;;;16.63;3.40;;;;;;;8.99;50.33;101121.16;5059169;28;20035;-79
2021/04/22 09:16:43;;;;;;;20.35;3.33;;;;;;;8.07;53.09;101134.97;5075297;28;20046;-79
2021/04/22 09:19:22;;;;;;;13.48;2.63;;;;;;;8.17;53.95;101151.34;5076745;28;20024;-79
2021/04/22 09:21:56;;;;;;;13.68;3.00;;;;;;;8.42;53.10;101151.41;5077433;28;20029;-79
2021/04/22 09:24:25;;;;;;;16.38;3.65;;;;;;;9.29;49.84;101133.13;5076341;28;20029;-79
2021/04/22 09:26:52;;;;;;;16.77;2.75;;;;;;;9.91;48.41;101134.56;5063965;28;20025;-79
2021/04/22 09:29:34;;;;;;;16.85;2.65;;;;;;;8.52;50.95;101135.88;5062472;28;20114;-79
2021/04/22 09:32:10;;;;;;;16.45;3.85;;;;;;;8.30;53.32;101142.72;5078997;28;20029;-79
2021/04/22 09:34:36;;;;;;;14.95;2.83;;;;;;;7.84;54.34;101152.13;5079813;28;20107;-79
2021/04/22 09:37:02;;;;;;;16.83;2.75;;;;;;;8.16;53.21;101151.31;5079433;28;20452;-79
2021/04/22 09:39:29;;;;;;;19.38;3.38;;;;;;;8.33;52.66;101147.03;5079125;28;20427;-79
2021/04/22 09:42:00;;;;;;;14.90;3.20;;;;;;;10.02;49.39;101149.16;5062862;28;20016;-79
2021/04/22 09:44:27;;;;;;;13.60;2.75;;;;;;;8.80;53.10;101143.59;5079619;28;20038;-79
2021/04/22 09:47:17;;;;;;;22.27;3.97;;;;;;;8.46;54.87;101148.78;5080671;28;20080;-79
2021/04/22 09:49:53;;;;;;;12.27;2.97;;;;;;;8.01;55.17;101153.03;5081168;28;20099;-79
2021/04/22 09:52:20;;;;;;;14.68;2.88;;;;;;;7.44;56.61;101154.59;5080899;28;20076;-78
2021/04/22 09:54:52;;;;;;;15.85;3.88;;;;;;;8.92;53.96;101150.47;5078132;28;20028;-79
2021/04/22 09:57:29;;;;;;;18.15;4.05;;;;;;;8.60;54.47;101147.94;5080169;28;20029;-79
2021/04/22 09:59:55;;;;;;;14.23;3.40;;;;;;;8.74;54.63;101154.84;5078967;28;20025;-79
2021/04/22 10:02:21;;;;;;;17.42;3.60;;;;;;;8.32;54.19;101163.41;5077073;28;20451;-79
2021/04/22 10:04:50;;;;;;;10.70;2.75;;;;;;;8.59;53.34;101167.78;5077281;28;20036;-79
2021/04/22 10:07:25;;;;;;;16.23;3.15;;;;;;;7.90;54.74;101159.91;5058682;28;20396;-79
2021/04/22 10:09:51;;;;;;;;;;;;;;;9.27;52.52;101162.47;5075810;28;20107;-79
2021/04/22 10:12:28;;;;;;;12.88;3.35;;;;;;;10.53;49.00;101163.53;5075643;28;19940;-78
2021/04/22 10:14:55;;;;;;;13.77;2.53;;;;;;;10.62;48.29;101147.00;5057947;28;20021;-79
2021/04/22 10:17:25;;;;;;;15.48;3.38;;;;;;;9.83;51.13;101167.41;5075075;28;20020;-79
2021/04/22 10:20:02;;;;;;;16.80;3.60;;;;;;;10.80;48.60;101144.22;5076001;28;20059;-79
2021/04/22 10:22:44;;;;;;;12.35;2.75;;;;;;;9.50;51.45;101167.56;5080405;28;20124;-79
2021/04/22 10:25:12;;;;;;;12.75;3.40;;;;;;;9.08;52.11;101164.25;5079340;28;20062;-79
2021/04/22 10:27:39;;;;;;;18.15;3.78;;;;;;;8.61;54.51;101162.59;5081175;28;20020;-79
2021/04/22 10:30:07;;;;;;;14.25;3.40;;;;;;;8.24;55.86;101172.88;5065436;28;20415;-79
2021/04/22 10:32:33;;;;;;;16.92;3.78;;;;;;;8.66;55.02;101166.91;5082234;28;20016;-79
2021/04/22 10:34:58;;;;;;;11.25;2.88;;;;;;;9.13;53.63;101170.28;5066904;28;20028;-78
2021/04/22 10:37:25;;;;;;;15.55;3.35;;;;;;;9.54;53.48;101177.91;5083123;28;20020;-79
2021/04/22 10:39:56;;;;;;;15.93;3.85;;;;;;;10.01;53.17;101168.19;5083841;28;20028;-79
2021/04/22 10:42:22;;;;;;;15.07;3.72;;;;;;;10.18;52.31;101171.50;5082808;28;20063;-79
2021/04/22 10:44:49;;;;;;;18.48;3.60;;;;;;;8.80;56.34;101168.59;5066248;28;20460;-79
2021/04/22 10:47:16;;;;;;;15.55;3.60;;;;;;;8.12;58.13;101183.19;5082588;28;20039;-80
2021/04/22 10:49:42;;;;;;;22.30;5.07;;;;;;;7.97;58.68;101176.28;5081745;28;20031;-79
2021/04/22 10:52:07;;;;;;;14.50;3.35;;;;;;;7.76;59.96;101159.88;5083949;28;20021;-79
2021/04/22 10:54:38;;;;;;;16.23;3.50;;;;;;;7.43;61.04;101191.56;5065026;28;20016;-79
2021/04/22 10:57:07;;;;;;;19.98;4.05;;;;;;;8.07;60.77;101191.81;5081542;28;20079;-79
2021/04/22 10:59:34;;;;;;;17.27;3.72;;;;;;;9.28;57.06;101187.50;5081792;28;20025;-79
2021/04/22 11:02:09;;;;;;;13.93;3.28;;;;;;;10.57;53.75;101180.75;5064247;28;20546;-79
2021/04/22 11:04:35;;;;;;;15.60;3.30;;;;;;;11.09;52.32;101188.97;5064494;28;20485;-79
2021/04/22 11:07:00;;;;;;;17.17;3.60;;;;;;;9.45;56.13;101184.00;5083206;28;20025;-79
2021/04/22 11:09:34;;;;;;;19.05;3.42;;;;;;;8.70;57.36;101180.69;5080534;28;20031;-80
2021/04/22 11:12:02;;;;;;;14.20;3.30;;;;;;;8.64;58.24;101191.03;5066555;28;20027;-79
2021/04/22 11:14:43;;;;;;;22.88;4.20;;;;;;;10.74;52.29;101190.13;5082779;28;20274;-80
2021/04/22 11:17:10;;;;;;;14.05;2.83;;;;;;;10.21;52.68;101155.09;5084974;28;20024;-80
2021/04/22 11:19:40;;;;;;;11.07;3.15;;;;;;;8.95;56.69;101178.94;5086359;28;20132;-79
2021/04/22 11:22:14;;;;;;;14.52;3.88;;;;;;;8.56;57.58;101200.50;5066853;28;20042;-79
2021/04/22 11:24:49;;;;;;;14.13;3.53;;;;;;;8.11;58.37;101202.16;5085246;28;20035;-79